Saint Helena Island, SC (29920)

1:13 AM EDT on July 26, 2016 (GMT -0400)
Distant Island | | Change Station

Elev 15 ft 32.38 °N, 80.63 °W | Updated 0 second ago

Clear
Clear
83.7 °F
Feels Like 89 °F
N
5.6
Wind Variable Wind from SSW
Gusts 7.4 mph

Today
High -- | Low -- °F
--% Chance of Precip.
Yesterday
High -- | Low -- °F
Precip. -- in
Pressure 30.06 in
Visibility 10.0 miles
Clouds Clear
Heat Index 89 °F
Dew Point 72 °F
Humidity 68%
Rainfall 0.00 in
Snow Depth Not available.
6:33 AM 8:23 PM
Waning Gibbous, 58% visible
METAR KARW 260455Z AUTO 20005KT 10SM CLR 27/22 A3006 RMK AO2
Pressure 30.06 in
Visibility 10.0 miles
Clouds Clear
Heat Index 89 °F
Dew Point 72 °F
Humidity 68%
Rainfall 0.00 in
Snow Depth Not available.
6:33 AM 8:23 PM
Waning Gibbous, 58% visible
METAR KARW 260455Z AUTO 20005KT 10SM CLR 27/22 A3006 RMK AO2

10-Day Weather Forecast

Almanac

Astronomy

Jul. 26, 2016 Rise Set
Actual Time
Civil Twilight
Nautical Twilight
Astronomical Twilight
Moon
Length of Visible Light
Length of Day
Tomorrow will be .
, % of the Moon is Illuminated

Today's Extremes

State Highs State Lows

Community

WunderPhotos

Upload Photos

1,927,538 photos uploaded!

WunderBlog® & News

Nearby

Air Quality

  Air Quality AQ Index Pollutant
Not available.

Snow Depth

Station Depth Elevation

Earthquake Activity

City Distance Mag. Time & Date
Minimum magnitude displayed is 2.5.

Coastal Water Temperatures

Place Temperature

Stations

Nearby Weather Stations

Station Location Temp. Windchill Dew Point Humidity Wind Precip. Elev Updated Type
                   

Watches & Warnings

There are currently no watches in effect.